sensor_id;sensor_type;location;lat;lon;timestamp;temperature;humidity
10143;DHT22;5112;54.088;13.446;2023-06-14T00:00:23;13.90;99.90
10143;DHT22;5112;54.088;13.446;2023-06-14T00:10:25;14.00;99.90
10143;DHT22;5112;54.088;13.446;2023-06-14T00:20:33;14.00;99.90
10143;DHT22;5112;54.088;13.446;2023-06-14T00:30:34;14.10;99.90
10143;DHT22;5112;54.088;13.446;2023-06-14T00:40:37;14.00;99.90
10143;DHT22;5112;54.088;13.446;2023-06-14T00:50:39;14.00;99.90
10143;DHT22;5112;54.088;13.446;2023-06-14T01:00:43;14.10;99.90
10143;DHT22;5112;54.088;13.446;2023-06-14T01:10:49;13.90;99.90
10143;DHT22;5112;54.088;13.446;2023-06-14T01:20:55;13.80;99.90
10143;DHT22;5112;54.088;13.446;2023-06-14T01:31:00;13.60;99.90
10143;DHT22;5112;54.088;13.446;2023-06-14T01:41:04;13.50;99.90
10143;DHT22;5112;54.088;13.446;2023-06-14T01:51:08;13.40;99.90
10143;DHT22;5112;54.088;13.446;2023-06-14T02:01:10;13.40;99.90
10143;DHT22;5112;54.088;13.446;2023-06-14T02:11:14;13.30;99.90
10143;DHT22;5112;54.088;13.446;2023-06-14T02:21:16;13.20;99.90
10143;DHT22;5112;54.088;13.446;2023-06-14T02:31:20;13.10;99.90
10143;DHT22;5112;54.088;13.446;2023-06-14T02:41:21;12.90;99.90
10143;DHT22;5112;54.088;13.446;2023-06-14T02:51:24;12.80;99.90
10143;DHT22;5112;54.088;13.446;2023-06-14T03:01:27;12.80;99.90
10143;DHT22;5112;54.088;13.446;2023-06-14T03:11:36;12.80;99.90
10143;DHT22;5112;54.088;13.446;2023-06-14T03:21:37;12.80;99.90
10143;DHT22;5112;54.088;13.446;2023-06-14T03:31:58;12.90;99.90
10143;DHT22;5112;54.088;13.446;2023-06-14T03:42:00;13.00;99.90
10143;DHT22;5112;54.088;13.446;2023-06-14T03:52:04;13.00;99.90
10143;DHT22;5112;54.088;13.446;2023-06-14T04:02:06;13.50;99.90
10143;DHT22;5112;54.088;13.446;2023-06-14T04:12:11;14.40;99.90
10143;DHT22;5112;54.088;13.446;2023-06-14T04:22:13;14.90;99.90
10143;DHT22;5112;54.088;13.446;2023-06-14T04:32:16;15.40;99.90
10143;DHT22;5112;54.088;13.446;2023-06-14T04:42:19;15.80;99.90
10143;DHT22;5112;54.088;13.446;2023-06-14T04:52:22;15.90;99.90
10143;DHT22;5112;54.088;13.446;2023-06-14T05:02:27;15.80;99.90
10143;DHT22;5112;54.088;13.446;2023-06-14T05:12:32;15.80;99.90
10143;DHT22;5112;54.088;13.446;2023-06-14T05:22:34;16.00;99.90
10143;DHT22;5112;54.088;13.446;2023-06-14T05:32:37;16.60;99.90
10143;DHT22;5112;54.088;13.446;2023-06-14T05:42:39;17.10;99.90
10143;DHT22;5112;54.088;13.446;2023-06-14T05:52:42;17.70;99.90
10143;DHT22;5112;54.088;13.446;2023-06-14T06:02:44;18.30;99.90
10143;DHT22;5112;54.088;13.446;2023-06-14T06:12:47;18.40;99.90
10143;DHT22;5112;54.088;13.446;2023-06-14T06:22:49;18.80;99.90
10143;DHT22;5112;54.088;13.446;2023-06-14T06:32:52;18.60;99.90
10143;DHT22;5112;54.088;13.446;2023-06-14T06:42:56;18.70;99.90
10143;DHT22;5112;54.088;13.446;2023-06-14T06:52:59;18.80;99.90
10143;DHT22;5112;54.088;13.446;2023-06-14T07:03:00;19.00;99.90
10143;DHT22;5112;54.088;13.446;2023-06-14T07:13:05;19.10;99.90
10143;DHT22;5112;54.088;13.446;2023-06-14T07:23:07;18.90;99.90
10143;DHT22;5112;54.088;13.446;2023-06-14T07:33:10;19.10;99.90
10143;DHT22;5112;54.088;13.446;2023-06-14T07:43:12;18.80;99.90
10143;DHT22;5112;54.088;13.446;2023-06-14T07:53:16;18.90;99.90
10143;DHT22;5112;54.088;13.446;2023-06-14T08:03:17;19.80;99.90
10143;DHT22;5112;54.088;13.446;2023-06-14T08:13:21;20.00;99.90
10143;DHT22;5112;54.088;13.446;2023-06-14T08:23:23;20.10;99.90
10143;DHT22;5112;54.088;13.446;2023-06-14T08:33:26;20.60;99.90
10143;DHT22;5112;54.088;13.446;2023-06-14T08:43:27;20.40;99.90
10143;DHT22;5112;54.088;13.446;2023-06-14T08:53:31;20.70;99.90
10143;DHT22;5112;54.088;13.446;2023-06-14T09:03:34;20.60;99.90
10143;DHT22;5112;54.088;13.446;2023-06-14T09:13:37;20.70;99.90
10143;DHT22;5112;54.088;13.446;2023-06-14T09:23:40;20.90;99.90
10143;DHT22;5112;54.088;13.446;2023-06-14T09:33:44;21.30;99.90
10143;DHT22;5112;54.088;13.446;2023-06-14T09:43:48;21.30;99.90
10143;DHT22;5112;54.088;13.446;2023-06-14T09:53:52;21.20;99.90
10143;DHT22;5112;54.088;13.446;2023-06-14T10:04:00;21.30;99.90
10143;DHT22;5112;54.088;13.446;2023-06-14T10:14:05;21.70;99.90
10143;DHT22;5112;54.088;13.446;2023-06-14T10:24:08;21.60;99.90
10143;DHT22;5112;54.088;13.446;2023-06-14T10:34:21;21.60;99.90
10143;DHT22;5112;54.088;13.446;2023-06-14T10:44:40;21.80;99.90
10143;DHT22;5112;54.088;13.446;2023-06-14T10:55:09;21.90;99.90
10143;DHT22;5112;54.088;13.446;2023-06-14T11:05:15;22.30;99.90
10143;DHT22;5112;54.088;13.446;2023-06-14T11:15:18;22.40;99.90
10143;DHT22;5112;54.088;13.446;2023-06-14T11:25:20;22.40;96.60
10143;DHT22;5112;54.088;13.446;2023-06-14T11:35:23;22.60;98.00
10143;DHT22;5112;54.088;13.446;2023-06-14T11:45:25;22.70;98.00
10143;DHT22;5112;54.088;13.446;2023-06-14T11:55:28;22.10;97.70
10143;DHT22;5112;54.088;13.446;2023-06-14T12:05:30;22.60;96.50
10143;DHT22;5112;54.088;13.446;2023-06-14T12:15:34;22.70;96.20
10143;DHT22;5112;54.088;13.446;2023-06-14T12:25:37;22.80;96.30
10143;DHT22;5112;54.088;13.446;2023-06-14T12:35:41;22.70;95.80
10143;DHT22;5112;54.088;13.446;2023-06-14T12:45:43;22.90;95.70
10143;DHT22;5112;54.088;13.446;2023-06-14T12:55:46;22.70;95.70
10143;DHT22;5112;54.088;13.446;2023-06-14T13:05:48;22.60;95.20
10143;DHT22;5112;54.088;13.446;2023-06-14T13:15:52;22.30;96.30
10143;DHT22;5112;54.088;13.446;2023-06-14T13:25:53;22.50;96.40
10143;DHT22;5112;54.088;13.446;2023-06-14T13:35:56;22.70;99.00
10143;DHT22;5112;54.088;13.446;2023-06-14T13:45:58;22.60;99.20
10143;DHT22;5112;54.088;13.446;2023-06-14T13:56:01;21.90;99.90
10143;DHT22;5112;54.088;13.446;2023-06-14T14:06:04;22.10;99.90
10143;DHT22;5112;54.088;13.446;2023-06-14T14:16:07;22.40;99.90
10143;DHT22;5112;54.088;13.446;2023-06-14T14:26:09;21.90;99.50
10143;DHT22;5112;54.088;13.446;2023-06-14T14:36:12;21.80;99.90
10143;DHT22;5112;54.088;13.446;2023-06-14T14:46:14;21.70;99.80
10143;DHT22;5112;54.088;13.446;2023-06-14T14:56:18;21.70;99.90
10143;DHT22;5112;54.088;13.446;2023-06-14T15:06:20;21.70;99.90
10143;DHT22;5112;54.088;13.446;2023-06-14T15:16:23;21.60;99.90
10143;DHT22;5112;54.088;13.446;2023-06-14T15:26:25;20.80;99.90
10143;DHT22;5112;54.088;13.446;2023-06-14T15:36:29;20.70;99.90
10143;DHT22;5112;54.088;13.446;2023-06-14T15:46:30;20.70;99.90
10143;DHT22;5112;54.088;13.446;2023-06-14T15:56:34;20.50;99.90
10143;DHT22;5112;54.088;13.446;2023-06-14T16:06:36;20.10;99.90
10143;DHT22;5112;54.088;13.446;2023-06-14T16:16:39;20.20;99.90
10143;DHT22;5112;54.088;13.446;2023-06-14T16:26:41;20.00;99.90
10143;DHT22;5112;54.088;13.446;2023-06-14T16:36:45;20.40;99.90
10143;DHT22;5112;54.088;13.446;2023-06-14T16:46:47;20.30;99.90
10143;DHT22;5112;54.088;13.446;2023-06-14T16:56:50;19.70;99.90
10143;DHT22;5112;54.088;13.446;2023-06-14T17:06:51;19.40;99.90
10143;DHT22;5112;54.088;13.446;2023-06-14T17:16:54;19.20;99.90
10143;DHT22;5112;54.088;13.446;2023-06-14T17:26:57;19.00;99.90
10143;DHT22;5112;54.088;13.446;2023-06-14T17:37:00;19.20;99.90
10143;DHT22;5112;54.088;13.446;2023-06-14T17:47:01;19.10;99.90
10143;DHT22;5112;54.088;13.446;2023-06-14T17:57:05;19.40;99.90
10143;DHT22;5112;54.088;13.446;2023-06-14T18:07:07;19.10;99.90
10143;DHT22;5112;54.088;13.446;2023-06-14T18:17:10;19.00;99.90
10143;DHT22;5112;54.088;13.446;2023-06-14T18:27:11;19.10;99.90
10143;DHT22;5112;54.088;13.446;2023-06-14T18:37:14;19.00;99.90
10143;DHT22;5112;54.088;13.446;2023-06-14T18:47:16;18.70;99.90
10143;DHT22;5112;54.088;13.446;2023-06-14T18:57:19;18.60;99.90
10143;DHT22;5112;54.088;13.446;2023-06-14T19:07:21;18.50;99.90
10143;DHT22;5112;54.088;13.446;2023-06-14T19:17:26;18.30;99.90
10143;DHT22;5112;54.088;13.446;2023-06-14T19:27:28;18.00;99.90
10143;DHT22;5112;54.088;13.446;2023-06-14T19:37:31;17.80;99.90
10143;DHT22;5112;54.088;13.446;2023-06-14T19:47:33;17.70;99.90
10143;DHT22;5112;54.088;13.446;2023-06-14T19:57:36;17.50;99.90
10143;DHT22;5112;54.088;13.446;2023-06-14T20:07:37;17.20;99.90
10143;DHT22;5112;54.088;13.446;2023-06-14T20:17:40;17.10;99.90
10143;DHT22;5112;54.088;13.446;2023-06-14T20:27:42;16.90;99.90
10143;DHT22;5112;54.088;13.446;2023-06-14T20:37:45;16.50;99.90
10143;DHT22;5112;54.088;13.446;2023-06-14T20:47:47;16.20;99.90
10143;DHT22;5112;54.088;13.446;2023-06-14T20:57:50;16.00;99.90
10143;DHT22;5112;54.088;13.446;2023-06-14T21:07:52;15.80;99.90
10143;DHT22;5112;54.088;13.446;2023-06-14T21:17:55;15.60;99.90
10143;DHT22;5112;54.088;13.446;2023-06-14T21:27:57;15.40;99.90
10143;DHT22;5112;54.088;13.446;2023-06-14T21:38:00;15.30;99.90
10143;DHT22;5112;54.088;13.446;2023-06-14T21:48:02;15.50;99.90
10143;DHT22;5112;54.088;13.446;2023-06-14T21:58:05;15.90;99.90
10143;DHT22;5112;54.088;13.446;2023-06-14T22:08:07;15.80;99.90
10143;DHT22;5112;54.088;13.446;2023-06-14T22:18:10;15.80;99.90
10143;DHT22;5112;54.088;13.446;2023-06-14T22:28:12;15.70;99.90
10143;DHT22;5112;54.088;13.446;2023-06-14T22:38:15;15.60;99.90
10143;DHT22;5112;54.088;13.446;2023-06-14T22:48:20;15.40;99.90
10143;DHT22;5112;54.088;13.446;2023-06-14T22:58:24;15.00;99.90
10143;DHT22;5112;54.088;13.446;2023-06-14T23:08:27;14.90;99.90
10143;DHT22;5112;54.088;13.446;2023-06-14T23:18:30;14.80;99.90
10143;DHT22;5112;54.088;13.446;2023-06-14T23:28:32;14.80;99.90
10143;DHT22;5112;54.088;13.446;2023-06-14T23:38:35;14.80;99.90
10143;DHT22;5112;54.088;13.446;2023-06-14T23:48:42;14.70;99.90
10143;DHT22;5112;54.088;13.446;2023-06-14T23:58:45;14.50;99.90
